Time;durP1;ratioP1;P1;durP2;ratioP2;P2;SDS_P1;SDS_P2;PMS_P1;PMS_P2;Temp;Humidity;BMP_temperature;BMP_pressure;BME280_temperature;BME280_humidity;BME280_pressure;Samples;Min_cycle;Max_cycle;Signal;HPM_P1;HPM_P2
2022/03/28 00:00:26;;;;;;;8.52;3.50;;;13.40;99.90;;;;;;1021664;29;20058;-61
2022/03/28 00:00:56;;;;;;;10.73;4.30;;;13.40;99.90;;;;;;1018016;29;20027;-61
2022/03/28 00:01:27;;;;;;;7.97;3.30;;;13.40;99.90;;;;;;1018409;29;20107;-62
2022/03/28 00:01:58;;;;;;;9.17;3.57;;;13.40;99.90;;;;;;1018266;29;20024;-61
2022/03/28 00:02:28;;;;;;;6.93;3.07;;;13.40;99.90;;;;;;1022755;29;20102;-61
2022/03/28 00:02:59;;;;;;;11.87;4.03;;;13.40;99.90;;;;;;1023231;29;20020;-60
2022/03/28 00:03:29;;;;;;;10.63;3.40;;;13.40;99.90;;;;;;1023073;29;20117;-61
2022/03/28 00:04:00;;;;;;;11.07;3.93;;;13.40;99.90;;;;;;1022683;29;20050;-61
2022/03/28 00:04:31;;;;;;;8.10;3.58;;;13.40;99.90;;;;;;1022741;29;20031;-61
2022/03/28 00:05:02;;;;;;;10.97;4.20;;;13.40;99.90;;;;;;1022731;29;20103;-61
2022/03/28 00:05:33;;;;;;;7.67;3.10;;;13.40;99.90;;;;;;1022436;29;20079;-62
2022/03/28 00:06:04;;;;;;;7.53;3.35;;;13.40;99.90;;;;;;1022978;29;20030;-61
2022/03/28 00:06:35;;;;;;;10.07;3.35;;;13.40;99.90;;;;;;1023243;29;20016;-61
2022/03/28 00:07:05;;;;;;;9.97;3.47;;;13.40;99.90;;;;;;1023047;29;20057;-61
2022/03/28 00:07:36;;;;;;;9.50;4.27;;;13.40;99.90;;;;;;1023278;29;20058;-61
2022/03/28 00:08:07;;;;;;;8.23;3.35;;;13.40;99.90;;;;;;1023029;29;20019;-61
2022/03/28 00:08:38;;;;;;;10.23;3.40;;;13.40;99.90;;;;;;1023229;29;20031;-61
2022/03/28 00:09:08;;;;;;;14.93;4.17;;;13.40;99.90;;;;;;1022920;29;20445;-61
2022/03/28 00:09:39;;;;;;;7.53;3.13;;;13.40;99.90;;;;;;1023195;29;20267;-61
2022/03/28 00:10:11;;;;;;;9.30;3.23;;;13.40;99.90;;;;;;1022572;29;20114;-61
2022/03/28 00:10:41;;;;;;;8.40;3.35;;;13.40;99.90;;;;;;1022619;29;20122;-62
2022/03/28 00:11:12;;;;;;;9.37;3.40;;;13.40;99.90;;;;;;1022780;29;20075;-61
2022/03/28 00:11:43;;;;;;;10.70;4.17;;;13.40;99.90;;;;;;1022740;29;20098;-60
2022/03/28 00:12:13;;;;;;;9.50;3.87;;;13.40;99.90;;;;;;1022771;29;20019;-61
2022/03/28 00:12:44;;;;;;;8.73;3.63;;;13.40;99.90;;;;;;1023059;29;20360;-62
2022/03/28 00:13:14;;;;;;;8.07;3.30;;;13.30;99.90;;;;;;1023132;29;20024;-62
2022/03/28 00:13:45;;;;;;;9.93;4.37;;;13.30;99.90;;;;;;1023104;29;20177;-61
2022/03/28 00:14:16;;;;;;;10.63;4.40;;;13.30;99.90;;;;;;1023176;29;20059;-61
2022/03/28 00:14:46;;;;;;;8.93;3.77;;;13.30;99.90;;;;;;1023109;29;20259;-61
2022/03/28 00:15:17;;;;;;;10.93;3.50;;;13.30;99.90;;;;;;1023074;29;20031;-61
2022/03/28 00:15:48;;;;;;;8.73;2.90;;;13.30;99.90;;;;;;1022916;29;21556;-60
2022/03/28 00:16:18;;;;;;;9.63;4.83;;;13.30;99.90;;;;;;1023300;29;20042;-61
2022/03/28 00:16:49;;;;;;;8.13;3.37;;;13.30;99.90;;;;;;1023109;29;20023;-61
2022/03/28 00:17:19;;;;;;;12.03;3.87;;;13.30;99.90;;;;;;1023234;29;20035;-62
2022/03/28 00:17:50;;;;;;;15.37;4.40;;;13.20;99.90;;;;;;1023046;29;20050;-62
2022/03/28 00:18:20;;;;;;;11.77;3.57;;;13.20;99.90;;;;;;1023182;29;20027;-62
2022/03/28 00:18:51;;;;;;;10.70;3.60;;;13.20;99.90;;;;;;1022909;29;20054;-61
2022/03/28 00:19:21;;;;;;;12.33;3.60;;;13.20;99.90;;;;;;1023300;29;20039;-61
2022/03/28 00:19:52;;;;;;;10.70;3.83;;;13.20;99.90;;;;;;1023103;29;20019;-61
2022/03/28 00:20:23;;;;;;;7.93;3.30;;;13.20;99.90;;;;;;1022956;29;20111;-61
2022/03/28 00:20:54;;;;;;;9.85;3.85;;;13.20;99.90;;;;;;1022731;28;20659;-61
2022/03/28 00:21:25;;;;;;;12.10;3.55;;;13.20;99.90;;;;;;1023192;29;20941;-62
2022/03/28 00:21:56;;;;;;;9.02;3.63;;;13.20;99.90;;;;;;1023093;29;20026;-60
2022/03/28 00:22:28;;;;;;;10.90;3.75;;;13.20;99.90;;;;;;1023225;29;20040;-63
2022/03/28 00:22:58;;;;;;;10.55;4.18;;;13.20;99.90;;;;;;1022980;29;20147;-59
2022/03/28 00:23:31;;;;;;;11.67;3.80;;;13.20;99.90;;;;;;1022523;29;20062;-60
2022/03/28 00:24:02;;;;;;;8.18;3.90;;;13.20;99.90;;;;;;1021520;28;20020;-61
2022/03/28 00:24:32;;;;;;;9.73;3.03;;;13.20;99.90;;;;;;1018663;28;20129;-62
2022/03/28 00:25:04;;;;;;;9.60;3.60;;;13.20;99.90;;;;;;1018881;29;20662;-60
2022/03/28 00:25:35;;;;;;;9.35;3.80;;;13.20;99.90;;;;;;1019151;29;20038;-60
2022/03/28 00:26:06;;;;;;;8.32;3.47;;;13.20;99.90;;;;;;1021801;29;20024;-60
2022/03/28 00:26:36;;;;;;;14.47;4.40;;;13.20;99.90;;;;;;1022728;29;20019;-61
2022/03/28 00:27:07;;;;;;;9.27;3.60;;;13.10;99.90;;;;;;1018862;29;20542;-62
2022/03/28 00:27:38;;;;;;;8.83;3.13;;;13.10;99.90;;;;;;1018909;29;20023;-61
2022/03/28 00:28:09;;;;;;;13.40;4.65;;;13.10;99.90;;;;;;1022650;29;20022;-60
2022/03/28 00:28:39;;;;;;;8.83;3.33;;;13.10;99.90;;;;;;1022738;29;20024;-60
2022/03/28 00:29:10;;;;;;;7.77;2.83;;;13.10;99.90;;;;;;1022697;29;20111;-61
2022/03/28 00:29:40;;;;;;;11.53;3.73;;;13.10;99.90;;;;;;1023225;29;20023;-62
2022/03/28 00:30:11;;;;;;;10.17;3.37;;;13.10;99.90;;;;;;1022902;29;20031;-62
2022/03/28 00:30:42;;;;;;;10.17;3.40;;;13.10;99.90;;;;;;1022753;29;20530;-62
2022/03/28 00:31:13;;;;;;;10.73;3.43;;;13.10;99.90;;;;;;1022699;29;20031;-62
2022/03/28 00:31:43;;;;;;;9.75;3.42;;;13.10;99.90;;;;;;1022963;29;20351;-62
2022/03/28 00:32:14;;;;;;;7.03;3.23;;;13.10;99.90;;;;;;1023169;29;20024;-62
2022/03/28 00:32:45;;;;;;;9.57;3.10;;;13.10;99.90;;;;;;1023062;29;20038;-63
2022/03/28 00:33:16;;;;;;;8.77;3.17;;;13.10;99.90;;;;;;1023031;29;20034;-62
2022/03/28 00:33:46;;;;;;;10.18;3.88;;;13.10;99.90;;;;;;1023052;29;20058;-61
2022/03/28 00:34:21;;;;;;;10.90;4.23;;;13.10;99.90;;;;;;1023025;29;20030;-61
2022/03/28 00:34:53;;;;;;;9.88;3.85;;;13.10;99.90;;;;;;1023245;28;20548;-61
2022/03/28 00:35:24;;;;;;;8.65;3.75;;;13.10;99.90;;;;;;1023182;28;20103;-62
2022/03/28 00:35:55;;;;;;;9.75;3.85;;;13.10;99.90;;;;;;1022686;28;20127;-62
2022/03/28 00:36:26;;;;;;;10.97;4.83;;;13.10;99.90;;;;;;1023059;29;20027;-62
2022/03/28 00:36:57;;;;;;;8.77;3.87;;;13.10;99.90;;;;;;1022889;29;20047;-62
2022/03/28 00:37:27;;;;;;;10.80;3.60;;;13.10;99.90;;;;;;1023199;29;20353;-63
2022/03/28 00:37:58;;;;;;;10.60;3.47;;;13.10;99.90;;;;;;1022505;29;20024;-61
2022/03/28 00:38:28;;;;;;;11.70;4.10;;;13.10;99.90;;;;;;1022762;29;20027;-62
2022/03/28 00:38:59;;;;;;;10.43;3.77;;;13.10;99.90;;;;;;1022488;29;20474;-62
2022/03/28 00:39:30;;;;;;;10.33;3.30;;;13.10;99.90;;;;;;1022745;29;20098;-62
2022/03/28 00:40:01;;;;;;;9.30;3.38;;;13.10;99.90;;;;;;1022916;29;20031;-61
2022/03/28 00:40:32;;;;;;;7.57;3.33;;;13.10;99.90;;;;;;1023170;29;20035;-62
2022/03/28 00:41:04;;;;;;;14.60;4.78;;;13.10;99.90;;;;;;1022757;29;20038;-62
2022/03/28 00:41:35;;;;;;;9.43;3.28;;;13.10;99.90;;;;;;1023133;29;20019;-61
2022/03/28 00:42:05;;;;;;;7.93;3.33;;;13.10;99.90;;;;;;1022894;29;20023;-62
2022/03/28 00:42:37;;;;;;;9.00;4.00;;;13.10;99.90;;;;;;1023172;29;20627;-62
2022/03/28 00:43:08;;;;;;;12.05;3.88;;;13.10;99.90;;;;;;1022744;29;20271;-62
2022/03/28 00:43:56;;;;;;;10.48;4.35;;;13.10;99.90;;;;;;1022745;29;20073;-62
2022/03/28 00:44:29;;;;;;;12.30;4.05;;;13.10;99.90;;;;;;1018714;29;20024;-61
2022/03/28 00:45:00;;;;;;;13.80;4.28;;;13.10;99.90;;;;;;1018667;29;20023;-63
2022/03/28 00:45:31;;;;;;;10.70;4.20;;;13.10;99.90;;;;;;1021491;29;20087;-62
2022/03/28 00:46:03;;;;;;;9.95;4.05;;;13.10;99.90;;;;;;1022758;29;20505;-62
2022/03/28 00:46:35;;;;;;;13.55;3.90;;;13.10;99.90;;;;;;1022795;29;20111;-62
2022/03/28 00:47:05;;;;;;;12.18;3.38;;;13.10;99.90;;;;;;1022939;29;20146;-63
2022/03/28 00:47:36;;;;;;;13.90;4.47;;;13.10;99.90;;;;;;1022985;29;20031;-61
2022/03/28 00:48:08;;;;;;;8.77;3.97;;;13.10;99.90;;;;;;1023061;29;20015;-62
2022/03/28 00:48:42;;;;;;;9.57;3.80;;;13.10;99.90;;;;;;1019053;29;20028;-61
2022/03/28 00:49:13;;;;;;;13.98;4.00;;;13.10;99.90;;;;;;1018835;29;20115;-61
2022/03/28 00:49:44;;;;;;;10.43;3.53;;;13.00;99.90;;;;;;1019128;29;20023;-61
2022/03/28 00:50:14;;;;;;;9.17;3.67;;;13.00;99.90;;;;;;1018950;29;20034;-63
2022/03/28 00:50:45;;;;;;;10.07;3.50;;;13.00;99.90;;;;;;1019049;29;20028;-62
2022/03/28 00:51:22;;;;;;;12.98;3.80;;;13.00;99.90;;;;;;1019544;29;20478;-62
2022/03/28 00:51:53;;;;;;;9.32;3.72;;;13.00;99.90;;;;;;1023000;29;20027;-61
2022/03/28 00:52:24;;;;;;;7.90;3.20;;;13.00;99.90;;;;;;1022910;29;20105;-60
2022/03/28 00:52:56;;;;;;;8.97;3.40;;;13.00;99.90;;;;;;1022888;29;20123;-60
2022/03/28 00:53:26;;;;;;;8.00;3.83;;;13.00;99.90;;;;;;1023035;29;20074;-62
2022/03/28 00:53:57;;;;;;;6.07;2.67;;;13.00;99.90;;;;;;1022859;29;20078;-61
2022/03/28 00:54:28;;;;;;;8.18;3.45;;;13.00;99.90;;;;;;1022873;29;20563;-61
2022/03/28 00:55:00;;;;;;;9.37;3.70;;;13.00;99.90;;;;;;1022828;29;20686;-61
2022/03/28 00:55:31;;;;;;;10.32;3.95;;;13.00;99.90;;;;;;1022812;29;20263;-61
2022/03/28 00:56:02;;;;;;;11.73;4.32;;;12.90;99.90;;;;;;1022557;29;20427;-61
2022/03/28 00:56:33;;;;;;;9.93;3.20;;;13.00;99.90;;;;;;1022279;29;20439;-63
2022/03/28 00:57:04;;;;;;;10.93;4.22;;;13.00;99.90;;;;;;1021532;29;20050;-62
2022/03/28 00:57:35;;;;;;;9.53;3.70;;;13.00;99.90;;;;;;1018808;29;20034;-61
2022/03/28 00:58:06;;;;;;;9.88;3.17;;;12.90;99.90;;;;;;1019106;29;20016;-61
2022/03/28 00:58:36;;;;;;;11.40;3.30;;;12.90;99.90;;;;;;1018930;29;20020;-62
2022/03/28 00:59:07;;;;;;;16.47;4.33;;;12.90;99.90;;;;;;1018874;29;20028;-62
2022/03/28 00:59:38;;;;;;;10.03;3.47;;;12.90;99.90;;;;;;1019090;29;20443;-61
2022/03/28 01:00:09;;;;;;;11.23;3.47;;;12.90;99.90;;;;;;1018939;29;20032;-61
2022/03/28 01:00:40;;;;;;;9.35;4.22;;;12.90;99.90;;;;;;1018964;29;20035;-61
2022/03/28 01:01:11;;;;;;;11.50;4.47;;;12.90;99.90;;;;;;1022538;29;20639;-62
2022/03/28 01:01:41;;;;;;;9.47;4.03;;;12.90;99.90;;;;;;1024623;28;20267;-61
2022/03/28 01:02:12;;;;;;;9.50;3.30;;;12.90;99.90;;;;;;1026497;28;20301;-60
2022/03/28 01:02:43;;;;;;;8.63;3.20;;;12.90;99.90;;;;;;1022513;29;20023;-61
2022/03/28 01:03:13;;;;;;;7.70;3.20;;;12.80;99.90;;;;;;1020092;29;20031;-60
2022/03/28 01:03:44;;;;;;;8.10;3.67;;;12.90;99.90;;;;;;1022990;29;20363;-62
2022/03/28 01:04:15;;;;;;;9.43;3.30;;;12.80;99.90;;;;;;1022779;29;20023;-61
2022/03/28 01:04:45;;;;;;;9.77;3.27;;;12.80;99.90;;;;;;1022875;29;20324;-61
2022/03/28 01:05:17;;;;;;;9.33;4.33;;;12.80;99.90;;;;;;1022968;29;20034;-60
2022/03/28 01:05:47;;;;;;;10.50;3.90;;;12.80;99.90;;;;;;1026569;28;20121;-63
2022/03/28 01:06:18;;;;;;;7.60;3.20;;;12.80;99.90;;;;;;1026549;28;20027;-60
2022/03/28 01:06:48;;;;;;;8.40;3.43;;;12.80;99.90;;;;;;1026080;28;20125;-62
2022/03/28 01:07:20;;;;;;;11.97;3.80;;;12.80;99.90;;;;;;1026470;28;20030;-61
2022/03/28 01:07:50;;;;;;;7.20;3.67;;;12.80;99.90;;;;;;1022814;29;20027;-61
2022/03/28 01:08:21;;;;;;;8.53;4.37;;;12.80;99.90;;;;;;1022589;29;20027;-61
2022/03/28 01:08:52;;;;;;;10.85;4.25;;;12.80;99.90;;;;;;1022940;28;20106;-60
2022/03/28 01:09:23;;;;;;;8.80;3.33;;;12.80;99.90;;;;;;1023085;29;20027;-61
2022/03/28 01:09:56;;;;;;;10.53;3.53;;;12.80;99.90;;;;;;1023024;29;20031;-61
2022/03/28 01:10:26;;;;;;;8.77;3.40;;;12.80;99.90;;;;;;1022891;28;20542;-61
2022/03/28 01:11:01;;;;;;;8.85;3.15;;;12.80;99.90;;;;;;1022867;28;20773;-60
2022/03/28 01:11:34;;;;;;;7.90;3.05;;;12.80;99.90;;;;;;1022829;28;20086;-62
2022/03/28 01:12:05;;;;;;;9.57;3.67;;;12.80;99.90;;;;;;1022781;28;20035;-61
2022/03/28 01:12:37;;;;;;;9.48;3.80;;;12.80;99.90;;;;;;1022779;29;20102;-62
2022/03/28 01:13:09;;;;;;;9.27;3.30;;;12.80;99.90;;;;;;1022563;28;20397;-61
2022/03/28 01:13:41;;;;;;;9.27;3.83;;;12.80;99.90;;;;;;1022891;29;20455;-60
2022/03/28 01:14:12;;;;;;;10.73;3.28;;;12.80;99.90;;;;;;1022815;29;20387;-62
2022/03/28 01:14:44;;;;;;;9.43;3.25;;;12.70;99.90;;;;;;1023080;29;20399;-61
2022/03/28 01:15:15;;;;;;;9.48;3.72;;;12.70;99.90;;;;;;1022991;29;20359;-61
2022/03/28 01:15:45;;;;;;;9.18;3.63;;;12.70;99.90;;;;;;1022862;29;20028;-61
2022/03/28 01:16:16;;;;;;;12.17;3.67;;;12.70;99.90;;;;;;1023074;29;20027;-61
2022/03/28 01:18:28;;;;;;;10.68;3.72;;;12.70;99.90;;;;;;1022924;29;20382;-60
2022/03/28 01:19:01;;;;;;;8.20;3.70;;;12.70;99.90;;;;;;1022817;29;20555;-60
2022/03/28 01:19:32;;;;;;;7.25;3.63;;;12.70;99.90;;;;;;1023027;29;20114;-62
2022/03/28 01:20:02;;;;;;;7.37;3.27;;;12.70;99.90;;;;;;1018907;29;20051;-60
2022/03/28 01:20:36;;;;;;;7.90;3.63;;;12.70;99.90;;;;;;1017965;28;20038;-61
2022/03/28 01:21:06;;;;;;;10.23;3.40;;;12.70;99.90;;;;;;1022484;28;20294;-61
2022/03/28 01:21:37;;;;;;;9.60;3.70;;;12.70;99.90;;;;;;1022903;28;20023;-63
2022/03/28 01:22:07;;;;;;;9.70;3.90;;;12.70;99.90;;;;;;1022067;29;20034;-61
2022/03/28 01:22:38;;;;;;;11.37;3.60;;;12.70;99.90;;;;;;1022516;29;20486;-63
2022/03/28 01:23:09;;;;;;;9.97;3.67;;;12.70;99.90;;;;;;1022442;29;20031;-62
2022/03/28 01:23:39;;;;;;;11.35;3.60;;;12.70;99.90;;;;;;1022613;29;20027;-62
2022/03/28 01:24:11;;;;;;;12.20;4.50;;;12.70;99.90;;;;;;1022665;29;20055;-61
2022/03/28 01:24:42;;;;;;;9.73;3.65;;;12.70;99.90;;;;;;1022952;29;20449;-63
2022/03/28 01:25:12;;;;;;;10.07;4.53;;;12.70;99.90;;;;;;1022682;29;20335;-61
2022/03/28 01:25:45;;;;;;;9.33;4.07;;;12.70;99.90;;;;;;1022887;29;20450;-62
2022/03/28 01:26:15;;;;;;;12.40;4.68;;;12.70;99.90;;;;;;1022305;29;20016;-63
2022/03/28 01:26:48;;;;;;;15.63;4.77;;;12.70;99.90;;;;;;1022560;29;20023;-61
2022/03/28 01:27:23;;;;;;;10.77;4.00;;;12.70;99.90;;;;;;1022272;29;20043;-61
2022/03/28 01:27:54;;;;;;;9.15;4.35;;;12.70;99.90;;;;;;1022621;29;20069;-62
2022/03/28 01:28:26;;;;;;;13.70;4.50;;;12.70;99.90;;;;;;1022958;29;20106;-60
2022/03/28 01:28:57;;;;;;;9.65;3.63;;;12.70;99.90;;;;;;1022735;29;20186;-63
2022/03/28 01:29:27;;;;;;;10.60;4.37;;;12.70;99.90;;;;;;1022714;29;20529;-61
2022/03/28 01:29:58;;;;;;;10.23;3.57;;;12.70;99.90;;;;;;1022834;29;20012;-61
2022/03/28 01:30:30;;;;;;;10.80;3.70;;;12.60;99.90;;;;;;1022284;29;20023;-62
2022/03/28 01:31:01;;;;;;;13.30;3.90;;;12.70;99.90;;;;;;1019768;29;20015;-61
2022/03/28 01:31:31;;;;;;;11.60;4.23;;;12.70;99.90;;;;;;1018651;29;20043;-61
2022/03/28 01:32:02;;;;;;;9.93;3.67;;;12.70;99.90;;;;;;1018561;29;20018;-62
2022/03/28 01:32:33;;;;;;;7.80;3.07;;;12.70;99.90;;;;;;1025947;28;20426;-62
2022/03/28 01:33:03;;;;;;;12.57;3.63;;;12.70;99.90;;;;;;1026343;28;20906;-60
2022/03/28 01:33:37;;;;;;;10.13;3.67;;;12.60;99.90;;;;;;1026361;28;20007;-61
2022/03/28 01:34:16;;;;;;;10.77;3.95;;;12.60;99.90;;;;;;1025982;28;20074;-63
2022/03/28 01:34:47;;;;;;;7.95;3.28;;;12.60;99.90;;;;;;1022698;28;20019;-61
2022/03/28 01:35:28;;;;;;;11.90;3.83;;;12.60;99.90;;;;;;1022384;29;20008;-64
2022/03/28 01:35:59;;;;;;;10.63;4.40;;;12.60;99.90;;;;;;1022446;29;20110;-62
2022/03/28 01:36:29;;;;;;;9.73;3.83;;;12.60;99.90;;;;;;1022497;29;20019;-61
2022/03/28 01:37:00;;;;;;;9.63;3.97;;;12.60;99.90;;;;;;1022744;29;20019;-61
2022/03/28 01:37:31;;;;;;;7.23;3.40;;;12.60;99.90;;;;;;1022531;29;20019;-62
2022/03/28 01:38:05;;;;;;;9.13;3.50;;;12.60;99.90;;;;;;1022718;29;20020;-63
2022/03/28 01:38:37;;;;;;;12.32;4.10;;;12.60;99.90;;;;;;1022788;29;20019;-62
2022/03/28 01:39:07;;;;;;;10.25;3.55;;;12.60;99.90;;;;;;1022079;29;20698;-61
2022/03/28 01:39:38;;;;;;;10.70;4.13;;;12.60;99.90;;;;;;1022513;29;20047;-60
2022/03/28 01:40:09;;;;;;;10.83;3.63;;;12.60;99.90;;;;;;1022451;29;20025;-61
2022/03/28 01:40:52;;;;;;;11.00;3.80;;;12.60;99.90;;;;;;1022583;29;20494;-61
2022/03/28 01:41:23;;;;;;;10.18;3.58;;;12.60;99.90;;;;;;1022509;29;20109;-61
2022/03/28 01:41:53;;;;;;;8.87;3.93;;;12.50;99.90;;;;;;1022312;29;20015;-62
2022/03/28 01:42:24;;;;;;;12.73;3.67;;;12.50;99.90;;;;;;1022234;29;20327;-61
2022/03/28 01:42:55;;;;;;;9.50;3.60;;;12.50;99.90;;;;;;1022380;29;20676;-61
2022/03/28 01:43:25;;;;;;;7.33;3.30;;;12.50;99.90;;;;;;1023004;29;20110;-62
2022/03/28 01:43:56;;;;;;;8.67;3.27;;;12.50;99.90;;;;;;1022480;29;20077;-62
2022/03/28 01:44:26;;;;;;;14.47;4.00;;;12.50;99.90;;;;;;1022782;29;20034;-61
2022/03/28 01:44:57;;;;;;;8.27;3.37;;;12.50;99.90;;;;;;1022142;29;20470;-61
2022/03/28 01:45:28;;;;;;;6.40;3.27;;;12.50;99.90;;;;;;1022767;29;20098;-62
2022/03/28 01:45:59;;;;;;;10.20;3.43;;;12.50;99.90;;;;;;1022438;29;20090;-62
2022/03/28 01:46:29;;;;;;;9.33;3.83;;;12.50;99.90;;;;;;1022367;29;20439;-61
2022/03/28 01:47:00;;;;;;;10.40;4.23;;;12.50;99.90;;;;;;1022680;29;20015;-61
2022/03/28 01:47:30;;;;;;;9.60;3.40;;;12.50;99.90;;;;;;1022508;29;20114;-62
2022/03/28 01:48:01;;;;;;;12.13;4.10;;;12.50;99.90;;;;;;1022715;29;20082;-61
2022/03/28 01:48:32;;;;;;;11.02;4.15;;;12.50;99.90;;;;;;1022780;29;20046;-61
2022/03/28 01:49:02;;;;;;;10.13;3.13;;;12.50;99.90;;;;;;1022669;29;20011;-61
2022/03/28 01:49:33;;;;;;;8.63;3.67;;;12.50;99.90;;;;;;1022753;29;20062;-61
2022/03/28 01:50:05;;;;;;;12.03;4.10;;;12.50;99.90;;;;;;1022803;29;20019;-62
2022/03/28 01:50:36;;;;;;;8.90;3.72;;;12.50;99.90;;;;;;1022783;29;20427;-61
2022/03/28 01:51:07;;;;;;;10.23;3.97;;;12.50;99.90;;;;;;1022607;29;20166;-61
2022/03/28 01:51:38;;;;;;;10.90;3.77;;;12.50;99.90;;;;;;1022813;29;20529;-61
2022/03/28 01:52:09;;;;;;;10.77;4.10;;;12.50;99.90;;;;;;1022690;28;20019;-62
2022/03/28 01:52:39;;;;;;;10.30;3.27;;;12.50;99.90;;;;;;1022115;29;20027;-62
2022/03/28 01:53:10;;;;;;;7.03;3.23;;;12.50;99.90;;;;;;1022147;29;20034;-61
2022/03/28 01:53:40;;;;;;;13.20;4.50;;;12.40;99.90;;;;;;1021786;29;20151;-63
2022/03/28 01:54:11;;;;;;;10.53;4.20;;;12.40;99.90;;;;;;1021525;29;20592;-60
2022/03/28 01:54:42;;;;;;;9.15;3.28;;;12.40;99.90;;;;;;1022416;29;20030;-63
2022/03/28 01:55:13;;;;;;;8.63;3.53;;;12.40;99.90;;;;;;1022371;29;20034;-61
2022/03/28 01:55:43;;;;;;;11.82;3.65;;;12.40;99.90;;;;;;1022283;29;20071;-61
2022/03/28 01:56:14;;;;;;;11.40;4.47;;;12.40;99.90;;;;;;1022211;29;20027;-63
2022/03/28 01:56:45;;;;;;;10.53;4.13;;;12.40;99.90;;;;;;1018438;29;20566;-61
2022/03/28 01:57:16;;;;;;;7.33;4.17;;;12.40;99.90;;;;;;1018378;29;20819;-61
2022/03/28 01:57:47;;;;;;;15.87;4.33;;;12.40;99.90;;;;;;1020003;29;20758;-61
2022/03/28 01:58:17;;;;;;;9.90;3.50;;;12.40;99.90;;;;;;1023064;29;20746;-61
2022/03/28 01:58:48;;;;;;;11.53;3.70;;;12.40;99.90;;;;;;1022340;29;20546;-61
2022/03/28 01:59:18;;;;;;;11.20;3.97;;;12.40;99.90;;;;;;1022797;29;20023;-63
2022/03/28 01:59:49;;;;;;;8.07;4.00;;;12.40;99.90;;;;;;1018610;29;20527;-60
2022/03/28 02:00:23;;;;;;;14.23;3.80;;;12.40;99.90;;;;;;1018784;29;20023;-61
2022/03/28 02:00:53;;;;;;;9.50;3.55;;;12.40;99.90;;;;;;1021860;29;20016;-61
2022/03/28 02:01:24;;;;;;;12.93;5.57;;;12.40;99.90;;;;;;1022525;29;20063;-62
2022/03/28 02:01:54;;;;;;;9.50;4.10;;;12.40;99.90;;;;;;1022368;29;20110;-61
2022/03/28 02:02:25;;;;;;;11.27;4.17;;;12.40;99.90;;;;;;1022313;29;20024;-61
2022/03/28 02:02:56;;;;;;;8.77;3.50;;;12.40;99.90;;;;;;1021336;29;20019;-66
2022/03/28 02:03:27;;;;;;;7.60;3.10;;;12.40;99.90;;;;;;1022864;29;20066;-61
2022/03/28 02:03:57;;;;;;;12.73;4.10;;;12.40;99.90;;;;;;1022646;29;20265;-61
2022/03/28 02:04:28;;;;;;;10.80;4.33;;;12.40;99.90;;;;;;1022023;29;20023;-62
2022/03/28 02:04:58;;;;;;;10.47;3.57;;;12.40;99.90;;;;;;1022237;29;20030;-61
2022/03/28 02:05:29;;;;;;;8.17;3.63;;;12.40;99.90;;;;;;1022349;29;20115;-61
2022/03/28 02:05:59;;;;;;;7.47;3.63;;;12.40;99.90;;;;;;1022378;29;20110;-61
2022/03/28 02:06:32;;;;;;;12.13;4.17;;;12.40;99.90;;;;;;1022595;29;20023;-60
2022/03/28 02:07:03;;;;;;;11.85;3.72;;;12.40;99.90;;;;;;1022636;28;20043;-60
2022/03/28 02:07:33;;;;;;;8.23;3.50;;;12.40;99.90;;;;;;1022630;29;20031;-62
2022/03/28 02:08:04;;;;;;;10.70;4.03;;;12.40;99.90;;;;;;1022414;29;20086;-62
2022/03/28 02:08:35;;;;;;;13.73;3.50;;;12.40;99.90;;;;;;1022644;29;20369;-62
2022/03/28 02:09:06;;;;;;;11.70;4.00;;;12.40;99.90;;;;;;1022548;29;20106;-62
2022/03/28 02:09:36;;;;;;;8.77;3.20;;;12.40;99.90;;;;;;1022710;29;20630;-62
2022/03/28 02:10:13;;;;;;;9.90;3.43;;;12.40;99.90;;;;;;1022567;29;20484;-62
2022/03/28 02:10:43;;;;;;;9.35;4.22;;;12.40;99.90;;;;;;1022704;29;20042;-63
2022/03/28 02:11:14;;;;;;;7.40;3.50;;;12.40;99.90;;;;;;1022554;29;20110;-62
2022/03/28 02:11:45;;;;;;;13.07;4.30;;;12.40;99.90;;;;;;1022769;28;20019;-60
2022/03/28 02:12:15;;;;;;;10.77;4.00;;;12.40;99.90;;;;;;1022737;28;20119;-62
2022/03/28 02:12:47;;;;;;;10.90;3.77;;;12.40;99.90;;;;;;1022394;29;20030;-63
2022/03/28 02:13:17;;;;;;;7.05;3.10;;;12.40;99.90;;;;;;1022528;28;20051;-61
2022/03/28 02:13:48;;;;;;;11.23;3.57;;;12.40;99.90;;;;;;1022210;29;20015;-62
2022/03/28 02:14:19;;;;;;;11.77;3.90;;;12.40;99.90;;;;;;1022409;29;20078;-62
2022/03/28 02:14:49;;;;;;;8.55;3.20;;;12.40;99.90;;;;;;1022181;29;20023;-61
2022/03/28 02:15:21;;;;;;;8.40;3.40;;;12.40;99.90;;;;;;1022422;29;20106;-62
2022/03/28 02:15:51;;;;;;;11.65;3.42;;;12.40;99.90;;;;;;1022565;29;20075;-62
2022/03/28 02:16:22;;;;;;;9.13;3.90;;;12.30;99.90;;;;;;1022386;29;20023;-62
2022/03/28 02:16:52;;;;;;;8.93;3.73;;;12.30;99.90;;;;;;1017359;28;20038;-61
2022/03/28 02:17:23;;;;;;;10.63;4.10;;;12.30;99.90;;;;;;1020196;28;20036;-60
2022/03/28 02:17:53;;;;;;;10.20;3.80;;;12.30;99.90;;;;;;1018645;29;20059;-60
2022/03/28 02:18:24;;;;;;;14.80;5.10;;;12.30;99.90;;;;;;1021777;29;20576;-60
2022/03/28 02:18:56;;;;;;;8.80;3.13;;;12.30;99.90;;;;;;1022483;29;20020;-61
2022/03/28 02:19:27;;;;;;;10.82;3.88;;;12.30;99.90;;;;;;1022667;29;20934;-62
2022/03/28 02:19:58;;;;;;;9.87;4.07;;;12.30;99.90;;;;;;1022525;29;20538;-61
2022/03/28 02:20:28;;;;;;;9.43;3.40;;;12.30;99.90;;;;;;1022784;29;20421;-60
2022/03/28 02:20:59;;;;;;;8.50;3.43;;;12.30;99.90;;;;;;1022070;29;20046;-61
2022/03/28 02:21:30;;;;;;;11.17;3.63;;;12.30;99.90;;;;;;1022392;29;20676;-60
2022/03/28 02:22:00;;;;;;;11.93;3.73;;;12.30;99.90;;;;;;1022179;29;20032;-61
2022/03/28 02:22:32;;;;;;;7.83;3.03;;;12.30;99.90;;;;;;1022346;29;20031;-60
2022/03/28 02:23:03;;;;;;;10.07;3.92;;;12.30;99.90;;;;;;1022555;29;20023;-63
2022/03/28 02:23:33;;;;;;;10.87;3.83;;;12.30;99.90;;;;;;1022222;29;20023;-62
2022/03/28 02:24:05;;;;;;;10.10;3.10;;;12.30;99.90;;;;;;1022067;29;20376;-62
2022/03/28 02:24:35;;;;;;;8.20;2.75;;;12.30;99.90;;;;;;1022084;28;20027;-61
2022/03/28 02:25:08;;;;;;;8.50;3.47;;;12.30;99.90;;;;;;1021922;29;20066;-63
2022/03/28 02:25:41;;;;;;;13.18;4.63;;;12.30;99.90;;;;;;1022696;29;20023;-62
2022/03/28 02:26:14;;;;;;;7.22;2.95;;;12.30;99.90;;;;;;1022568;29;20394;-61
2022/03/28 02:26:44;;;;;;;7.72;3.40;;;12.30;99.90;;;;;;1022717;29;20099;-61
2022/03/28 02:27:16;;;;;;;12.47;4.43;;;12.20;99.90;;;;;;1022576;29;20134;-61
2022/03/28 02:27:47;;;;;;;10.73;3.95;;;12.20;99.90;;;;;;1022689;29;20023;-61
2022/03/28 02:28:17;;;;;;;12.80;3.73;;;12.20;99.90;;;;;;1022388;29;20027;-61
2022/03/28 02:28:48;;;;;;;9.37;3.20;;;12.20;99.90;;;;;;1022580;29;20086;-61
2022/03/28 02:29:18;;;;;;;10.53;3.53;;;12.20;99.90;;;;;;1022365;29;20011;-61
2022/03/28 02:29:49;;;;;;;10.93;3.70;;;12.20;99.90;;;;;;1022603;29;20568;-62
2022/03/28 02:30:19;;;;;;;8.27;3.60;;;12.20;99.90;;;;;;1022670;29;20522;-60
2022/03/28 02:30:50;;;;;;;6.73;3.10;;;12.20;99.90;;;;;;1021992;29;20012;-63
2022/03/28 02:31:21;;;;;;;10.07;3.83;;;12.20;99.90;;;;;;1022206;29;20023;-63
2022/03/28 02:31:51;;;;;;;11.13;3.60;;;12.20;99.90;;;;;;1022357;29;20018;-60
2022/03/28 02:32:22;;;;;;;9.60;3.60;;;12.20;99.90;;;;;;1022188;29;20034;-61
2022/03/28 02:32:52;;;;;;;11.20;3.77;;;12.20;99.90;;;;;;1018621;29;20080;-60
2022/03/28 02:33:23;;;;;;;8.87;3.83;;;12.20;99.90;;;;;;1018968;29;20011;-62
2022/03/28 02:33:54;;;;;;;10.33;3.80;;;12.20;99.90;;;;;;1022483;29;20038;-62
2022/03/28 02:34:24;;;;;;;11.83;4.17;;;12.20;99.90;;;;;;1022206;29;20023;-62
2022/03/28 02:34:55;;;;;;;8.43;3.53;;;12.20;99.90;;;;;;1021707;29;20019;-62
2022/03/28 02:35:26;;;;;;;10.77;3.83;;;12.20;99.90;;;;;;1022322;29;20781;-61
2022/03/28 02:35:56;;;;;;;7.60;3.97;;;12.10;99.90;;;;;;1022061;29;20537;-62
2022/03/28 02:36:27;;;;;;;7.43;3.20;;;12.10;99.90;;;;;;1022513;29;20750;-61
2022/03/28 02:36:57;;;;;;;10.83;4.10;;;12.10;99.90;;;;;;1022480;29;20023;-62
2022/03/28 02:37:28;;;;;;;8.00;3.33;;;12.10;99.90;;;;;;1022101;29;20391;-62
2022/03/28 02:38:01;;;;;;;9.88;3.58;;;12.10;99.90;;;;;;1022096;29;20008;-60
2022/03/28 02:38:32;;;;;;;8.48;3.38;;;12.10;99.90;;;;;;1021904;29;20034;-61
2022/03/28 02:39:02;;;;;;;11.47;3.60;;;12.10;99.90;;;;;;1018490;29;20036;-60
2022/03/28 02:39:33;;;;;;;10.33;4.07;;;12.10;99.90;;;;;;1022405;29;20031;-62
2022/03/28 02:40:05;;;;;;;11.87;3.67;;;12.10;99.90;;;;;;1022181;29;20015;-61
2022/03/28 02:40:36;;;;;;;8.88;3.85;;;12.10;99.90;;;;;;1022120;29;20015;-63
2022/03/28 02:41:07;;;;;;;12.80;3.93;;;12.10;99.90;;;;;;1022664;29;20016;-63
2022/03/28 02:41:37;;;;;;;8.83;4.00;;;12.10;99.90;;;;;;1022670;29;20737;-63
2022/03/28 02:42:09;;;;;;;8.37;3.50;;;12.10;99.90;;;;;;1022551;29;20467;-62
2022/03/28 02:42:41;;;;;;;10.55;3.60;;;12.10;99.90;;;;;;1022516;29;20011;-62
2022/03/28 02:43:11;;;;;;;12.13;4.03;;;12.10;99.90;;;;;;1022445;29;20039;-61